Latest Coastal Weather Observations for Point Perpendicular

IDN60701

Issued at 5:21 pm EST Tuesday 26 May 2020 (issued every 10 minutes, with the page automatically refreshed every 10 minutes)

About coastal observations | Map of coastal stations | Coastal observations for NSW | Marine services | Other Formats
Station Details ID: 068151 Name: POINT PERPENDICULAR AWS Lat: -35.09 Lon: 150.80 Height: 85.0 m
Data from the previous 72 hours. | See also: Recent months at Point Perpendicular
Date/Time
EST
Wind Sea
Height
m
Swell Vis
km
Cloud Weather Temp
°C
Press
hPa
Rain since
9am
mm
Dir  Spd
kts
Gust
kts
Height
m
Period
s
Dir
26/05:00pm SSE 8 12 - - - - - - - 16.9 1022.9 3.2
26/04:30pm SSE 9 14 - - - - - - - 16.7 1022.5 3.2
26/04:00pm SSE 9 14 - - - - - - - 17.2 1022.4 3.2
26/03:30pm SSE 9 15 - - - - - - - 17.5 1022.2 3.2
26/03:00pm SSW 9 14 - - - - - - - 16.9 1022.3 3.2
26/02:30pm S 11 17 - - - - - - - 16.4 1022.5 3.2
26/02:00pm S 10 17 - - - - - - - 16.0 1022.5 3.2
26/01:30pm S 12 20 - - - - - - - 15.8 1022.4 3.2
26/01:00pm S 11 20 - - - - - - - 17.3 1022.8 2.2
26/12:30pm SSE 11 17 - - - - - - - 17.1 1023.1 2.2
26/12:00pm S 10 15 - - - - - - Recent precip. 16.2 1023.6 2.2
26/11:30am SSW 7 15 - - - - - - - 15.6 1023.9 2.2
26/11:00am SE 11 19 - - - - - - - 16.7 1023.6 1.4
26/10:30am SSE 11 18 - - - - - - - 17.0 1023.8 1.4
26/10:00am SSE 10 17 - - - - - - - 16.4 1023.9 1.4
26/09:30am SE 11 18 - - - - - - - 16.4 1024.0 1.4
26/09:11am SE 15 26 - - - - - - - 15.0 1023.5 1.2
26/09:00am SE 12 19 - - - - - - Recent precip. 16.8 1023.4 13.4
26/08:30am SE 11 16 - - - - - - - 16.3 1023.0 13.4
26/08:00am SW 10 19 - - - - - - - 14.1 1023.3 12.8
26/07:30am SSW 13 23 - - - - - - - 14.4 1022.6 12.4
26/07:00am SW 16 24 - - - - - - - 15.1 1021.9 12.4
26/06:37am SW 15 25 - - - - - - - 14.3 1022.0 8.2
26/06:30am SW 15 23 - - - - - - - 14.4 1021.7 7.8
26/06:09am SSW 15 25 - - - - - - - 13.9 1021.6 5.6
26/06:00am SW 16 25 - - - - - - Rain 13.9 1021.3 5.2
26/05:58am SW 15 25 - - - - - - - 13.9 1021.4 5.2
26/05:30am SW 13 22 - - - - - - - 12.9 1022.4 3.4
26/05:02am SW 17 27 - - - - - - - 12.7 1021.2 3.4
26/05:00am SW 18 27 - - - - - - - 13.0 1020.9 3.4
26/04:30am SW 16 24 - - - - - - - 13.3 1021.3 3.0
26/04:15am SW 16 26 - - - - - - - 13.2 1021.4 3.0
26/04:00am SW 16 25 - - - - - - - 13.3 1021.6 2.8
26/03:31am SW 15 25 - - - - - - - 13.9 1020.6 2.4
26/03:30am SW 14 24 - - - - - - - 13.8 1021.2 2.4
26/03:03am SW 18 29 - - - - - - - 13.1 1021.8 1.6
26/03:00am SW 19 27 - - - - - - - 13.4 1021.5 1.4
26/02:30am SW 21 33 - - - - - - - 14.1 1020.9 1.4
26/02:03am SSW 21 31 - - - - - - - 14.4 1021.0 1.4
26/02:00am SSW 20 29 - - - - - - - 14.4 1020.9 1.4
26/01:30am SSW 20 31 - - - - - - - 14.4 1020.6 1.4
26/01:00am SSW 21 31 - - - - - - - 14.6 1020.9 1.4
26/12:30am SSW 21 32 - - - - - - - 13.9 1021.0 1.4
26/12:00am SSW 20 30 - - - - - - - 14.1 1020.7 1.4
 
Date/Time
EST
Wind Sea
Height
m
Swell Vis
km
Cloud Weather Temp
°C
Press
hPa
Rain since
9am
mm
Dir  Spd
kts
Gust
kts
Height
m
Period
s
Dir
25/11:34pm SSW 22 32 - - - - - - - 14.0 1020.9 1.4
25/11:30pm SSW 23 32 - - - - - - - 13.7 1020.7 1.4
25/11:00pm SSW 22 34 - - - - - - - 14.3 1020.6 1.4
25/10:30pm SSW 20 31 - - - - - - - 15.2 1020.3 1.4
25/10:00pm SSW 20 32 - - - - - - - 14.7 1020.4 1.4
25/09:30pm SSW 21 32 - - - - - - - 15.4 1020.0 1.4
25/09:00pm SSW 21 33 - - - - - - - 15.1 1020.2 1.4
25/08:31pm SSW 22 34 - - - - - - - 14.9 1019.8 1.4
25/08:30pm SSW 23 32 - - - - - - - 14.8 1019.8 1.4
25/08:00pm SSW 23 34 - - - - - - - 14.7 1019.4 1.4
25/07:30pm SSW 23 34 - - - - - - - 15.1 1019.1 1.4
25/07:00pm SSW 23 34 - - - - - - - 14.5 1018.6 1.4
25/06:30pm SSW 22 37 - - - - - - - 14.4 1018.5 1.4
25/06:00pm SSW 23 35 - - - - - - - 14.3 1018.2 1.4
25/05:30pm SSW 24 35 - - - - - - - 14.4 1018.0 1.4
25/05:00pm SSW 26 40 - - - - - - - 14.6 1017.8 1.4
25/04:30pm SSW 25 36 - - - - - - - 14.6 1017.3 1.4
25/04:00pm SSW 27 38 - - - - - - - 14.4 1017.4 1.4
25/03:31pm SSW 24 34 - - - - - - - 13.9 1017.1 1.4
25/03:30pm SSW 25 34 - - - - - - - 14.0 1017.2 1.4
25/03:00pm SSW 25 36 - - - - - - Rain 14.2 1017.2 1.2
25/02:30pm SSW 23 39 - - - - - - - 14.0 1017.1 1.0
25/02:00pm SSW 23 35 - - - - - - - 14.0 1017.0 0.6
25/01:30pm SW 24 36 - - - - - - - 14.1 1016.8 0.6
25/01:00pm SSW 25 36 - - - - - - - 13.5 1016.6 0.4
25/12:30pm SSW 27 39 - - - - - - - 13.2 1016.5 0.4
25/12:00pm SSW 24 34 - - - - - - - 12.9 1016.8 0.4
25/11:30am SSW 24 34 - - - - - - - 13.3 1017.0 0.4
25/11:00am SSW 24 38 - - - - - - - 13.0 1017.0 0.4
25/10:30am SSW 26 37 - - - - - - - 13.4 1017.4 0.0
25/10:00am SSW 25 38 - - - - - - - 13.5 1016.7 0.0
25/09:30am SSW 26 38 - - - - - - - 13.9 1017.1 0.0
25/09:00am SSW 25 38 - - - - - - - 13.9 1016.2 1.2
25/08:30am SSW 26 38 - - - - - - - 13.8 1016.2 1.2
25/08:00am SSW 25 36 - - - - - - - 13.9 1016.0 1.2
25/07:30am SSW 25 37 - - - - - - - 13.6 1015.8 1.2
25/07:00am SSW 25 39 - - - - - - - 13.8 1015.8 1.2
25/06:30am SSW 26 39 - - - - - - - 14.0 1014.8 1.2
25/06:00am SSW 26 37 - - - - - - - 13.5 1014.9 1.2
25/05:30am SSW 25 36 - - - - - - - 13.4 1014.4 1.2
25/05:00am SSW 28 38 - - - - - - - 13.5 1013.9 1.2
25/04:30am SSW 24 38 - - - - - - - 13.8 1014.2 1.2
25/04:04am SSW 26 36 - - - - - - - 14.1 1014.1 1.2
25/04:00am SSW 27 36 - - - - - - - 14.5 1014.2 1.2
25/03:30am SSW 21 33 - - - - - - - 13.9 1013.8 1.2
25/03:00am SSW 22 35 - - - - - - - 13.8 1014.2 1.2
25/02:30am SSW 21 31 - - - - - - - 13.6 1015.1 1.2
25/02:00am SSW 22 33 - - - - - - - 13.8 1015.1 1.2
25/01:30am SSW 22 32 - - - - - - - 14.3 1014.6 1.2
25/01:01am SSW 19 33 - - - - - - - 13.8 1015.0 1.2
25/01:00am SSW 19 28 - - - - - - - 13.5 1015.1 1.2
25/12:30am SSW 19 34 - - - - - - - 13.2 1015.6 1.2
25/12:00am SSW 22 40 - - - - - - Rain 13.1 1015.4 1.2
 
Date/Time
EST
Wind Sea
Height
m
Swell Vis
km
Cloud Weather Temp
°C
Press
hPa
Rain since
9am
mm
Dir  Spd
kts
Gust
kts
Height
m
Period
s
Dir
24/11:30pm SSW 21 31 - - - - - - - 12.8 1015.5 1.0
24/11:00pm SW 21 33 - - - - - - - 13.0 1015.3 1.0
24/10:30pm SSW 23 36 - - - - - - - 13.8 1015.4 0.6
24/10:00pm SSW 23 36 - - - - - - - 13.1 1014.9 0.2
24/09:30pm SSW 22 36 - - - - - - - 13.2 1014.2 0.2
24/09:00pm SSW 24 36 - - - - - - Rain 13.5 1014.5 0.2
24/08:30pm SSW 25 36 - - - - - - - 14.5 1013.9 0.0
24/08:00pm SSW 25 39 - - - - - - - 14.0 1013.9 0.0
24/07:30pm SSW 25 38 - - - - - - - 13.2 1013.2 0.0
24/07:00pm SSW 23 35 - - - - - - - 14.4 1013.3 0.0
24/06:30pm SSW 26 41 - - - - - - - 14.3 1012.8 0.0
24/06:00pm SSW 25 38 - - - - - - - 14.8 1013.3 0.0
24/05:33pm SSW 22 35 - - - - - - - 15.2 1013.1 0.0
24/05:30pm SSW 22 31 - - - - - - - 15.4 1013.1 0.0
24/05:00pm SSW 23 37 - - - - - - - 15.4 1012.5 0.0
24/04:30pm SSW 27 38 - - - - - - - 15.4 1011.7 0.0
24/04:00pm SSW 24 36 - - - - - - - 15.6 1011.9 0.0
24/03:30pm SSW 25 38 - - - - - - - 15.7 1010.6 0.0
24/03:00pm SSW 25 38 - - - - - - - 15.6 1011.2 0.0
24/02:30pm SSW 26 38 - - - - - - - 15.3 1010.3 0.0
24/02:00pm SSW 28 40 - - - - - - - 15.8 1010.4 0.0
24/01:30pm SSW 29 39 - - - - - - - 15.6 1009.9 0.0
24/01:00pm SSW 27 42 - - - - - - - 15.3 1010.1 0.0
24/12:30pm SSW 29 43 - - - - - - - 15.3 1009.7 0.0
24/12:00pm SSW 25 40 - - - - - - - 15.5 1010.9 0.0
24/11:30am SSW 27 39 - - - - - - - 15.6 1011.0 0.0
24/11:00am SSW 27 42 - - - - - - - 15.0 1011.4 0.0
24/10:30am SSW 27 41 - - - - - - - 15.2 1011.3 0.0
24/10:00am SSW 28 39 - - - - - - - 14.8 1011.2 0.0
24/09:30am SSW 28 45 - - - - - - - 14.9 1010.5 0.0
24/09:00am SSW 27 40 - - - - - - - 14.9 1010.4 0.0
24/08:30am SSW 28 41 - - - - - - - 14.5 1010.3 0.0
24/08:00am SSW 25 41 - - - - - - - 14.6 1010.1 0.0
24/07:30am SSW 25 36 - - - - - - - 14.6 1010.1 0.0
24/07:00am SSW 26 38 - - - - - - - 14.5 1009.2 0.0
24/06:30am SSW 24 38 - - - - - - - 15.3 1008.7 0.0
24/06:00am SSW 26 38 - - - - - - - 15.3 1008.8 0.0
24/05:30am SSW 26 38 - - - - - - - 15.2 1007.6 0.0
24/05:00am SSW 27 39 - - - - - - - 15.4 1007.7 0.0
24/04:31am SSW 23 33 - - - - - - - 15.2 1007.8 0.0
24/04:30am SSW 24 33 - - - - - - - 15.3 1007.7 0.0
24/04:00am SSW 25 39 - - - - - - - 15.2 1007.1 0.0
24/03:30am SSW 24 35 - - - - - - - 15.1 1007.1 0.0
24/03:00am SSW 27 41 - - - - - - - 15.4 1007.4 0.0
24/02:30am SSW 26 38 - - - - - - - 15.3 1007.4 0.0
24/02:00am SW 24 39 - - - - - - - 15.4 1007.0 0.0
24/01:30am SSW 25 39 - - - - - - - 15.4 1007.4 0.0
24/01:00am SSW 25 36 - - - - - - - 15.4 1007.6 0.0
24/12:30am SSW 23 37 - - - - - - - 15.6 1007.4 0.0
24/12:00am SW 24 38 - - - - - - - 15.5 1007.5 0.0
 
Date/Time
EST
Wind Sea
Height
m
Swell Vis
km
Cloud Weather Temp
°C
Press
hPa
Rain since
9am
mm
Dir  Spd
kts
Gust
kts
Height
m
Period
s
Dir
23/11:30pm SW 21 34 - - - - - - - 15.7 1007.3 0.0
23/11:00pm SW 22 33 - - - - - - - 15.8 1007.6 0.0
23/10:30pm SSW 24 34 - - - - - - - 15.9 1007.4 0.0
23/10:00pm SSW 21 33 - - - - - - - 15.9 1007.3 0.0
23/09:30pm SSW 23 37 - - - - - - - 15.8 1007.4 0.0
23/09:00pm SW 22 35 - - - - - - - 16.0 1007.1 0.0
23/08:30pm SW 19 34 - - - - - - - 15.8 1006.5 0.0
23/08:00pm SW 25 37 - - - - - - - 16.0 1007.0 0.0
23/07:30pm SSW 23 33 - - - - - - - 16.3 1006.6 0.0
23/07:00pm SSW 24 35 - - - - - - - 16.1 1006.3 0.0
23/06:30pm SSW 24 36 - - - - - - - 16.3 1005.9 0.0
23/06:00pm SSW 22 37 - - - - - - - 16.5 1005.2 0.0
23/05:38pm SW 15 29 - - - - - - - 16.5 1006.1 0.0
23/05:30pm SW 14 26 - - - - - - - 16.4 1007.0 0.0

Other formats

Comma delimited format used in spreadsheet applications
http://www.bom.gov.au/fwo/IDN60701/IDN60701.95940.axf

JavaScript Object Notation format (JSON) in row-major order
http://www.bom.gov.au/fwo/IDN60701/IDN60701.95940.json

Data quality

Most of these data are generated automatically and are frequently updated. Quality checks on data are not normally performed. It is possible for incorrect values to appear. Refer to information at About Latest Weather Observations and please check the disclaimer before using these data.